Time;durP1;ratioP1;P1;durP2;ratioP2;P2;SDS_P1;SDS_P2;PMS_P1;PMS_P2;Temp;Humidity;BMP_temperature;BMP_pressure;BME280_temperature;BME280_humidity;BME280_pressure;Samples;Min_cycle;Max_cycle;Signal;HPM_P1;HPM_P2
2022/08/14 00:02:12;;;;;;;3.78;3.47;;;15.60;99.90;;;;;;5004771;28;20045;-73
2022/08/14 00:04:40;;;;;;;4.93;4.10;;;15.60;99.90;;;;;;5002944;28;20080;-67
2022/08/14 00:07:10;;;;;;;;;;;15.50;99.90;;;;;;5003182;28;20189;-70
2022/08/14 00:09:44;;;;;;;4.60;4.18;;;15.50;99.90;;;;;;5003660;28;19951;-68
2022/08/14 00:12:33;;;;;;;4.32;3.92;;;15.50;99.90;;;;;;5003102;28;20045;-70
2022/08/14 00:15:27;;;;;;;5.20;4.68;;;15.50;99.90;;;;;;5000417;28;20160;-69
2022/08/14 00:18:03;;;;;;;5.22;4.72;;;15.50;99.90;;;;;;5003676;28;20049;-71
2022/08/14 00:20:34;;;;;;;5.03;4.20;;;15.50;99.90;;;;;;5002402;28;20577;-72
2022/08/14 00:23:10;;;;;;;4.85;4.38;;;15.50;99.90;;;;;;5002087;28;20066;-71
2022/08/14 00:25:46;;;;;;;5.57;4.93;;;15.50;99.90;;;;;;5002568;28;20061;-71
2022/08/14 00:28:33;;;;;;;5.25;4.85;;;15.50;99.90;;;;;;5003137;28;20034;-73
2022/08/14 00:31:03;;;;;;;5.53;5.07;;;15.50;99.90;;;;;;5002183;28;20057;-71
2022/08/14 00:33:31;;;;;;;7.57;5.75;;;15.50;99.90;;;;;;5001836;28;20232;-70
2022/08/14 00:36:19;;;;;;;7.57;5.10;;;15.60;99.90;;;;;;5003735;28;20083;-70
2022/08/14 00:39:07;;;;;;;5.30;4.82;;;15.50;99.90;;;;;;5003505;28;20045;-71
2022/08/14 00:41:36;;;;;;;11.85;6.78;;;15.50;99.90;;;;;;5001568;28;20060;-71
2022/08/14 00:44:05;;;;;;;4.97;4.53;;;15.50;99.90;;;;;;5003378;28;20057;-74
2022/08/14 00:46:35;;;;;;;4.55;4.15;;;15.50;99.90;;;;;;5002170;28;20736;-68
2022/08/14 00:49:03;;;;;;;5.60;5.10;;;15.50;99.90;;;;;;5003294;28;20152;-71
2022/08/14 00:51:32;;;;;;;5.50;4.95;;;15.40;99.90;;;;;;5001014;28;20476;-74
2022/08/14 00:54:04;;;;;;;6.10;5.20;;;15.40;99.90;;;;;;5001781;28;20168;-71
2022/08/14 00:56:48;;;;;;;5.50;4.53;;;15.40;99.90;;;;;;5002984;28;20108;-70
2022/08/14 00:59:15;;;;;;;6.13;4.65;;;15.40;99.90;;;;;;4999855;28;20077;-70
2022/08/14 01:01:44;;;;;;;6.13;4.55;;;15.40;99.90;;;;;;5002947;28;20918;-70
2022/08/14 01:04:12;;;;;;;4.68;4.25;;;15.40;99.90;;;;;;5002034;28;20061;-71
2022/08/14 01:07:00;;;;;;;5.45;4.95;;;15.40;99.90;;;;;;5002680;28;20067;-71
2022/08/14 01:09:35;;;;;;;4.72;4.07;;;15.30;99.90;;;;;;4996160;28;20054;-69
2022/08/14 01:12:03;;;;;;;10.05;5.22;;;15.30;99.90;;;;;;5003023;28;20068;-73
2022/08/14 01:14:30;;;;;;;6.03;4.97;;;15.30;99.90;;;;;;5003558;28;20775;-71
2022/08/14 01:16:58;;;;;;;4.45;4.05;;;15.30;99.90;;;;;;5002578;28;20109;-71
2022/08/14 01:22:14;;;;;;;5.78;3.65;;;15.30;99.90;;;;;;5002763;28;20042;-74
2022/08/14 01:24:45;;;;;;;6.30;4.65;;;15.20;99.90;;;;;;5002661;28;20144;-74
2022/08/14 01:27:17;;;;;;;4.53;4.18;;;15.20;99.90;;;;;;5001047;28;20989;-71
2022/08/14 01:29:50;;;;;;;5.85;5.45;;;15.20;99.90;;;;;;5001999;28;20199;-71
2022/08/14 01:32:30;;;;;;;5.22;4.72;;;15.20;99.90;;;;;;5002372;28;20624;-74
2022/08/14 01:35:06;;;;;;;5.13;4.20;;;15.10;99.90;;;;;;5001438;28;20140;-71
2022/08/14 01:37:54;;;;;;;5.40;4.40;;;15.10;99.90;;;;;;4999365;28;20056;-71
2022/08/14 01:40:27;;;;;;;4.18;3.88;;;15.00;99.90;;;;;;5002547;28;20467;-69
2022/08/14 01:43:16;;;;;;;5.53;4.57;;;15.00;99.90;;;;;;5002194;28;20050;-67
2022/08/14 01:45:52;;;;;;;5.40;5.00;;;14.90;99.90;;;;;;5001808;28;20670;-74
2022/08/14 01:48:33;;;;;;;5.13;3.45;;;14.90;99.90;;;;;;5001050;28;20065;-69
2022/08/14 01:51:07;;;;;;;4.25;3.15;;;14.90;99.90;;;;;;5002165;28;20068;-66
2022/08/14 01:53:47;;;;;;;6.13;4.40;;;14.90;99.90;;;;;;5001087;28;20060;-69
2022/08/14 01:57:02;;;;;;;5.82;4.88;;;14.90;99.90;;;;;;5001522;28;20061;-70
2022/08/14 01:59:31;;;;;;;4.95;4.00;;;14.80;99.90;;;;;;4998749;28;20135;-68
2022/08/14 02:02:11;;;;;;;4.30;4.00;;;14.80;99.90;;;;;;5002953;28;20058;-69
2022/08/14 02:04:46;;;;;;;4.05;3.75;;;14.80;99.90;;;;;;5003008;28;20065;-71
2022/08/14 02:07:23;;;;;;;5.85;3.67;;;14.80;99.90;;;;;;5003895;28;20050;-68
2022/08/14 02:10:12;;;;;;;4.20;3.80;;;14.80;99.90;;;;;;5005105;28;20042;-69
2022/08/14 02:12:45;;;;;;;4.57;3.47;;;14.70;99.90;;;;;;5004764;28;20091;-70
2022/08/14 02:15:23;;;;;;;4.57;3.70;;;14.70;99.90;;;;;;5003606;28;20144;-67
2022/08/14 02:17:50;;;;;;;6.45;3.95;;;14.60;99.90;;;;;;5004569;28;20157;-69
2022/08/14 02:20:19;;;;;;;4.65;3.70;;;14.60;99.90;;;;;;5005692;28;20127;-71
2022/08/14 02:22:52;;;;;;;4.50;3.50;;;14.60;99.90;;;;;;5005845;28;20050;-69
2022/08/14 02:25:21;;;;;;;5.72;3.88;;;14.60;99.90;;;;;;5002082;28;20163;-73
2022/08/14 02:27:55;;;;;;;6.07;3.90;;;14.60;99.90;;;;;;5004544;28;20468;-66
2022/08/14 02:30:42;;;;;;;4.72;4.32;;;14.60;99.90;;;;;;5003280;28;20075;-71
2022/08/14 02:33:11;;;;;;;5.10;3.60;;;14.60;99.90;;;;;;5002538;28;20064;-69
2022/08/14 02:35:42;;;;;;;3.90;3.60;;;14.60;99.90;;;;;;5003683;28;20061;-70
2022/08/14 02:38:09;;;;;;;5.05;3.97;;;14.60;99.90;;;;;;5004013;28;20072;-69
2022/08/14 02:40:37;;;;;;;8.73;4.00;;;14.50;99.90;;;;;;5003661;28;20530;-69
2022/08/14 02:43:06;;;;;;;3.83;3.53;;;14.50;99.90;;;;;;5002700;28;20144;-69
2022/08/14 02:45:33;;;;;;;4.93;3.60;;;14.50;99.90;;;;;;4999213;28;20065;-69
2022/08/14 02:48:10;;;;;;;3.83;3.38;;;14.50;99.90;;;;;;5003098;28;20176;-74
2022/08/14 02:50:58;;;;;;;4.70;4.30;;;14.50;99.90;;;;;;5002937;28;20041;-71
2022/08/14 02:53:28;;;;;;;3.92;3.53;;;14.50;99.90;;;;;;5001455;28;20041;-71
2022/08/14 02:55:58;;;;;;;4.00;3.65;;;14.50;99.90;;;;;;5001782;28;20046;-76
2022/08/14 02:58:48;;;;;;;4.60;3.00;;;14.50;99.90;;;;;;5003000;28;20046;-70
2022/08/14 03:01:19;;;;;;;3.47;3.17;;;14.50;99.90;;;;;;4998959;28;20058;-68
2022/08/14 03:03:50;;;;;;;3.88;3.35;;;14.40;99.90;;;;;;5003387;28;20149;-72
2022/08/14 03:06:22;;;;;;;4.57;4.20;;;14.40;99.90;;;;;;5002128;28;20058;-70
2022/08/14 03:09:12;;;;;;;5.38;3.17;;;14.40;99.90;;;;;;5000726;28;20049;-74
2022/08/14 03:11:43;;;;;;;3.08;2.88;;;14.40;99.90;;;;;;5002562;28;20052;-74
2022/08/14 03:14:12;;;;;;;2.67;2.47;;;14.40;99.90;;;;;;5004311;28;20077;-73
2022/08/14 03:16:44;;;;;;;3.78;3.20;;;14.40;99.90;;;;;;5004198;28;20041;-70
2022/08/14 03:19:16;;;;;;;4.00;3.65;;;14.40;99.90;;;;;;5002520;28;20049;-71
2022/08/14 03:21:45;;;;;;;;;;;14.40;99.90;;;;;;5004675;28;20137;-71
2022/08/14 03:24:21;;;;;;;3.85;3.55;;;14.40;99.90;;;;;;5003720;28;19936;-70
2022/08/14 03:26:55;;;;;;;3.70;3.40;;;14.40;99.90;;;;;;4986096;28;20080;-70
2022/08/14 03:29:24;;;;;;;4.57;3.33;;;14.40;99.90;;;;;;5002980;28;20050;-71
2022/08/14 03:31:53;;;;;;;4.50;4.10;;;14.40;99.90;;;;;;5002779;28;20073;-67
2022/08/14 03:34:23;;;;;;;3.28;2.95;;;14.40;99.90;;;;;;5003541;28;20140;-70
2022/08/14 03:37:11;;;;;;;3.38;3.08;;;14.40;99.90;;;;;;5000768;28;20057;-68
2022/08/14 03:39:58;;;;;;;4.32;3.72;;;14.40;99.90;;;;;;5002541;28;20045;-67
2022/08/14 03:42:26;;;;;;;4.00;3.20;;;14.50;99.90;;;;;;5002637;28;20507;-70
2022/08/14 03:45:05;;;;;;;2.60;2.40;;;14.50;99.90;;;;;;5001896;28;20121;-68
2022/08/14 03:47:52;;;;;;;3.58;3.28;;;14.50;99.90;;;;;;5002679;28;20413;-69
2022/08/14 03:50:25;;;;;;;4.15;3.85;;;14.60;99.90;;;;;;5003385;28;20423;-70
2022/08/14 03:52:59;;;;;;;3.13;2.92;;;14.60;99.90;;;;;;5002514;28;20779;-71
2022/08/14 03:55:27;;;;;;;2.83;2.63;;;14.60;99.90;;;;;;5000681;28;22068;-69
2022/08/14 03:57:56;;;;;;;5.50;4.23;;;14.70;99.90;;;;;;4998662;28;20052;-76
2022/08/14 04:00:27;;;;;;;3.33;3.03;;;14.70;99.90;;;;;;5000450;28;20142;-70
2022/08/14 04:03:12;;;;;;;3.78;2.88;;;14.70;99.90;;;;;;4998371;28;20054;-73
2022/08/14 04:05:49;;;;;;;3.67;2.60;;;14.80;99.90;;;;;;4999177;28;20107;-72
2022/08/14 04:08:17;;;;;;;3.42;3.15;;;14.90;99.90;;;;;;4999645;28;20045;-69
2022/08/14 04:11:00;;;;;;;3.72;3.33;;;14.90;99.90;;;;;;4999770;28;20046;-70
2022/08/14 04:13:35;;;;;;;4.63;4.22;;;15.00;99.90;;;;;;4997508;28;20076;-73
2022/08/14 04:16:24;;;;;;;3.75;3.40;;;15.00;99.90;;;;;;4999640;28;20072;-70
2022/08/14 04:18:58;;;;;;;2.85;2.65;;;15.10;99.90;;;;;;4999122;28;21168;-67
2022/08/14 04:21:28;;;;;;;5.55;3.50;;;15.10;99.90;;;;;;4996371;28;20049;-68
2022/08/14 04:24:05;;;;;;;5.30;2.80;;;15.20;99.90;;;;;;4998124;28;20364;-73
2022/08/14 04:26:32;;;;;;;4.03;2.78;;;15.30;99.90;;;;;;4997854;28;20045;-69
2022/08/14 04:29:08;;;;;;;3.45;3.15;;;15.40;99.90;;;;;;4995695;28;20069;-70
2022/08/14 04:31:41;;;;;;;3.13;2.85;;;15.40;99.90;;;;;;4998679;28;20065;-69
2022/08/14 04:34:28;;;;;;;4.03;3.33;;;15.60;99.90;;;;;;4999577;28;20042;-72
2022/08/14 04:45:24;;;;;;;3.88;3.58;;;15.90;99.90;;;;;;4996777;28;20375;-66
2022/08/14 04:48:13;;;;;;;4.05;3.65;;;16.00;99.90;;;;;;4998902;28;20049;-71
2022/08/14 04:51:02;;;;;;;3.95;3.35;;;16.20;99.90;;;;;;4999314;28;20049;-68
2022/08/14 04:53:30;;;;;;;3.47;3.10;;;16.30;99.90;;;;;;4997151;28;20133;-74
2022/08/14 04:56:04;;;;;;;4.70;3.28;;;16.40;99.90;;;;;;5000150;28;20077;-68
2022/08/14 04:58:37;;;;;;;3.85;3.53;;;16.50;99.90;;;;;;4999637;28;20053;-69
2022/08/14 05:01:06;;;;;;;5.30;3.58;;;16.70;99.90;;;;;;4999177;28;20148;-67
2022/08/14 05:03:45;;;;;;;;;;;16.80;99.90;;;;;;4998650;28;20048;-70
2022/08/14 05:06:13;;;;;;;4.32;2.97;;;16.80;99.90;;;;;;4999863;28;19925;-71
2022/08/14 05:09:00;;;;;;;3.90;3.53;;;16.90;99.90;;;;;;5001137;28;20060;-69
2022/08/14 05:11:29;;;;;;;5.57;4.15;;;17.10;99.90;;;;;;4996355;28;20184;-70
2022/08/14 05:13:56;;;;;;;7.38;3.95;;;17.20;99.90;;;;;;4998671;28;20535;-68
2022/08/14 05:16:43;;;;;;;4.25;3.35;;;17.40;99.90;;;;;;4998716;28;20108;-70
2022/08/14 05:19:14;;;;;;;6.50;4.28;;;17.40;99.90;;;;;;4997859;28;20405;-72
2022/08/14 05:21:57;;;;;;;6.15;3.35;;;17.60;99.90;;;;;;4998660;28;20056;-70
2022/08/14 05:24:42;;;;;;;3.75;3.38;;;17.70;99.90;;;;;;4999826;28;20041;-71
2022/08/14 05:27:09;;;;;;;3.58;3.25;;;17.80;99.90;;;;;;4998230;28;20127;-75
2022/08/14 05:29:36;;;;;;;4.13;3.75;;;17.90;99.90;;;;;;5000155;28;20077;-71
2022/08/14 05:32:06;;;;;;;4.00;2.70;;;18.00;99.90;;;;;;5001638;28;20123;-67
2022/08/14 05:34:33;;;;;;;3.15;2.95;;;18.10;99.90;;;;;;5000846;28;21372;-67
2022/08/14 05:37:01;;;;;;;3.40;3.10;;;18.20;99.90;;;;;;5000146;28;20108;-71
2022/08/14 05:39:29;;;;;;;3.35;3.15;;;18.30;99.90;;;;;;4999734;28;20353;-68
2022/08/14 05:41:57;;;;;;;3.90;3.42;;;18.30;99.90;;;;;;5005012;28;20060;-68
2022/08/14 05:44:26;;;;;;;2.97;2.78;;;18.40;99.90;;;;;;5004942;28;20048;-69
2022/08/14 05:46:57;;;;;;;3.50;3.17;;;18.50;99.90;;;;;;5005670;28;20193;-70
2022/08/14 05:49:25;;;;;;;5.47;3.28;;;18.60;99.90;;;;;;5002243;28;20053;-67
2022/08/14 05:52:00;;;;;;;3.35;3.05;;;18.60;99.90;;;;;;5005491;28;20063;-70
2022/08/14 05:54:29;;;;;;;3.20;2.67;;;18.80;99.90;;;;;;5004910;28;20038;-72
2022/08/14 05:57:03;;;;;;;2.72;2.40;;;18.80;99.90;;;;;;5004817;28;20042;-72
2022/08/14 05:59:31;;;;;;;4.40;3.00;;;18.80;99.90;;;;;;5003817;28;20088;-68
2022/08/14 06:02:07;;;;;;;3.20;2.33;;;18.90;99.90;;;;;;5004469;28;20084;-68
2022/08/14 06:04:36;;;;;;;4.82;3.75;;;19.00;99.90;;;;;;5004604;28;20137;-68
2022/08/14 06:07:04;;;;;;;4.30;3.88;;;19.10;99.90;;;;;;5005084;28;20058;-70
2022/08/14 06:09:31;;;;;;;4.32;2.78;;;19.20;99.90;;;;;;5003064;28;20061;-71
2022/08/14 06:12:07;;;;;;;3.83;2.80;;;19.30;99.90;;;;;;5004301;28;20037;-69
2022/08/14 06:14:36;;;;;;;3.30;3.05;;;19.40;99.90;;;;;;5006575;28;20053;-72
2022/08/14 06:17:04;;;;;;;4.70;3.42;;;19.60;99.90;;;;;;5005232;28;20041;-72
2022/08/14 06:19:31;;;;;;;3.17;2.70;;;19.70;99.90;;;;;;5002731;28;20451;-71
2022/08/14 06:21:58;;;;;;;3.65;2.70;;;19.70;99.90;;;;;;5003932;28;20684;-70
2022/08/14 06:24:26;;;;;;;4.32;2.90;;;19.90;99.90;;;;;;5004513;28;20053;-72
2022/08/14 06:27:01;;;;;;;2.72;2.50;;;19.90;99.90;;;;;;5003772;28;20497;-71
2022/08/14 06:29:33;;;;;;;3.50;2.53;;;20.00;99.90;;;;;;5003205;28;20492;-67
2022/08/14 06:32:01;;;;;;;8.13;2.63;;;20.10;99.90;;;;;;5005432;28;20249;-69
2022/08/14 06:34:48;;;;;;;5.15;2.20;;;20.20;99.90;;;;;;5005005;28;20034;-71
2022/08/14 06:37:42;;;;;;;4.72;2.20;;;20.40;99.90;;;;;;5003235;28;20137;-72
2022/08/14 06:40:11;;;;;;;7.20;2.63;;;20.50;99.90;;;;;;5005619;28;20045;-68
2022/08/14 06:42:55;;;;;;;4.68;2.60;;;20.50;99.90;;;;;;5005108;28;20129;-74
2022/08/14 06:45:26;;;;;;;4.40;2.20;;;20.60;99.90;;;;;;5004380;28;20054;-68
2022/08/14 06:47:54;;;;;;;4.78;2.72;;;20.70;99.90;;;;;;5005186;28;20081;-71
2022/08/14 06:50:26;;;;;;;3.72;3.08;;;20.90;99.90;;;;;;5003869;28;20073;-67
2022/08/14 06:52:57;;;;;;;5.18;3.70;;;20.90;99.90;;;;;;5005129;28;20054;-67
2022/08/14 06:55:24;;;;;;;3.78;2.50;;;21.00;99.90;;;;;;5002764;28;20128;-71
2022/08/14 06:57:55;;;;;;;4.78;2.42;;;21.10;99.90;;;;;;5005157;28;20139;-69
2022/08/14 07:00:26;;;;;;;4.30;2.30;;;21.20;99.90;;;;;;5005366;28;20133;-70
2022/08/14 07:05:45;;;;;;;5.30;2.35;;;21.30;99.90;;;;;;5004771;28;20053;-69
2022/08/14 07:08:29;;;;;;;5.43;3.55;;;21.40;99.90;;;;;;5004395;28;20170;-73
2022/08/14 07:10:59;;;;;;;3.00;2.60;;;21.50;99.90;;;;;;5005080;28;20050;-72
2022/08/14 07:13:27;;;;;;;2.97;2.40;;;21.60;99.90;;;;;;5004600;28;20055;-70
2022/08/14 07:15:58;;;;;;;7.40;3.80;;;21.70;99.90;;;;;;5005141;28;20056;-70
2022/08/14 07:18:29;;;;;;;3.72;2.78;;;21.80;99.90;;;;;;5006219;28;20070;-69
2022/08/14 07:20:58;;;;;;;4.13;2.53;;;21.90;99.90;;;;;;5005198;28;20045;-67
2022/08/14 07:23:26;;;;;;;4.18;2.90;;;22.00;99.90;;;;;;5005303;28;20038;-71
2022/08/14 07:25:58;;;;;;;7.18;3.85;;;22.00;99.90;;;;;;5005383;28;20100;-72
2022/08/14 07:28:41;;;;;;;8.00;2.92;;;22.20;99.90;;;;;;5005230;28;20499;-72
2022/08/14 07:31:10;;;;;;;2.85;2.47;;;22.20;99.90;;;;;;5002707;28;20042;-72
2022/08/14 07:33:47;;;;;;;5.97;2.58;;;22.30;99.90;;;;;;5007135;28;20069;-72
2022/08/14 07:36:18;;;;;;;3.83;2.55;;;22.30;99.90;;;;;;5005474;28;20480;-73
2022/08/14 07:39:00;;;;;;;3.40;2.75;;;22.30;99.90;;;;;;5005356;28;20073;-68
2022/08/14 07:41:39;;;;;;;5.55;3.20;;;22.40;99.90;;;;;;5003000;28;20427;-70
2022/08/14 07:44:10;;;;;;;3.97;2.28;;;22.40;99.90;;;;;;5006165;28;20133;-71
2022/08/14 07:46:57;;;;;;;6.35;3.40;;;22.50;99.90;;;;;;5006117;28;20042;-74
2022/08/14 07:49:24;;;;;;;2.88;2.13;;;22.50;99.90;;;;;;5003960;28;20613;-72
2022/08/14 07:51:51;;;;;;;5.13;2.63;;;22.60;99.90;;;;;;5005910;28;20149;-72
2022/08/14 07:54:19;;;;;;;7.95;3.03;;;22.60;99.90;;;;;;5004789;28;20151;-70
2022/08/14 07:56:59;;;;;;;3.85;3.47;;;22.70;99.90;;;;;;5004746;28;20057;-69
2022/08/14 07:59:40;;;;;;;4.85;2.65;;;22.80;99.90;;;;;;5005345;28;20911;-70
2022/08/14 08:02:16;;;;;;;13.23;2.85;;;22.90;99.90;;;;;;5006051;28;20709;-70
2022/08/14 08:04:54;;;;;;;7.95;3.22;;;23.00;99.90;;;;;;5005809;28;20041;-71
2022/08/14 08:07:29;;;;;;;8.40;3.60;;;23.20;99.90;;;;;;5003577;28;20629;-71
2022/08/14 08:09:58;;;;;;;2.60;2.40;;;23.30;99.90;;;;;;5003597;28;20129;-74
2022/08/14 08:12:28;;;;;;;3.47;3.10;;;23.50;99.90;;;;;;5003913;28;20037;-71
2022/08/14 08:14:58;;;;;;;;;;;23.60;99.90;;;;;;5006203;28;20049;-70
2022/08/14 08:17:33;;;;;;;4.10;3.38;;;23.70;99.90;;;;;;5003498;28;19932;-70
2022/08/14 08:20:09;;;;;;;3.88;3.47;;;23.70;99.90;;;;;;5007019;28;20526;-69
2022/08/14 08:22:39;;;;;;;4.28;3.35;;;23.90;99.90;;;;;;5003850;28;20481;-70
2022/08/14 08:25:10;;;;;;;2.58;2.38;;;23.90;99.90;;;;;;5001471;28;20044;-68
2022/08/14 08:27:40;;;;;;;6.68;3.45;;;24.20;99.90;;;;;;5003251;28;20057;-72
2022/08/14 08:30:11;;;;;;;2.85;2.50;;;24.00;99.90;;;;;;5003927;28;20038;-67
2022/08/14 08:32:42;;;;;;;8.45;2.50;;;24.10;99.90;;;;;;5003700;28;20050;-70
2022/08/14 08:35:17;;;;;;;4.43;2.97;;;24.20;99.90;;;;;;5003619;28;20492;-73
2022/08/14 08:37:44;;;;;;;5.10;2.60;;;24.40;99.90;;;;;;5003256;28;20050;-70
2022/08/14 08:40:27;;;;;;;7.32;4.05;;;24.50;99.90;;;;;;5003669;28;20066;-70
2022/08/14 08:42:57;;;;;;;3.97;2.40;;;24.70;99.90;;;;;;5003423;28;20061;-66
2022/08/14 08:45:25;;;;;;;5.05;2.70;;;24.90;99.90;;;;;;5001086;28;20613;-70
2022/08/14 08:47:54;;;;;;;3.83;2.78;;;25.00;99.90;;;;;;5004836;28;20053;-71
2022/08/14 08:50:35;;;;;;;3.72;2.80;;;25.20;99.90;;;;;;5002513;28;20073;-69
2022/08/14 08:53:06;;;;;;;2.97;2.20;;;25.30;99.90;;;;;;5002055;28;20095;-71
2022/08/14 08:55:38;;;;;;;4.15;3.25;;;25.00;99.90;;;;;;5002274;28;20957;-70
2022/08/14 08:58:07;;;;;;;4.85;2.53;;;24.90;99.90;;;;;;5001968;28;20097;-71
2022/08/14 09:00:50;;;;;;;6.60;1.85;;;24.90;99.90;;;;;;5001961;28;20538;-71
2022/08/14 09:03:24;;;;;;;3.47;2.58;;;25.10;99.90;;;;;;4999959;28;20076;-73
2022/08/14 09:06:02;;;;;;;3.28;2.97;;;24.90;99.90;;;;;;5002210;28;20053;-75
2022/08/14 09:08:32;;;;;;;4.80;2.95;;;24.70;99.90;;;;;;5002958;28;20244;-71
2022/08/14 09:11:10;;;;;;;5.63;3.25;;;24.90;99.90;;;;;;5003394;28;20179;-70
2022/08/14 09:13:47;;;;;;;4.45;2.40;;;24.90;99.90;;;;;;5000068;28;20057;-71
2022/08/14 09:16:19;;;;;;;2.20;2.00;;;25.20;99.90;;;;;;5001362;28;21441;-70
2022/08/14 09:18:47;;;;;;;4.57;2.90;;;25.40;99.90;;;;;;5002211;28;20290;-68
2022/08/14 09:21:15;;;;;;;6.90;2.70;;;25.60;99.90;;;;;;4999917;28;20375;-72
2022/08/14 09:23:42;;;;;;;3.80;2.42;;;25.80;99.90;;;;;;5000898;28;20499;-71
2022/08/14 09:26:29;;;;;;;3.42;2.75;;;26.00;99.90;;;;;;5000095;28;20452;-70
2022/08/14 09:28:59;;;;;;;10.15;3.70;;;26.10;99.90;;;;;;5000360;28;20045;-72
2022/08/14 09:31:28;;;;;;;9.45;3.60;;;26.40;99.90;;;;;;4999490;28;20081;-70
2022/08/14 09:34:33;;;;;;;7.05;2.47;;;26.50;99.90;;;;;;5000377;28;20534;-73
2022/08/14 09:37:36;;;;;;;16.40;2.22;;;26.70;99.90;;;;;;4999661;28;20049;-69
2022/08/14 09:40:08;;;;;;;9.63;2.58;;;26.80;99.90;;;;;;4998896;28;20176;-72
2022/08/14 09:42:54;;;;;;;5.97;2.38;;;27.10;99.90;;;;;;5000582;28;20124;-71
2022/08/14 09:45:34;;;;;;;5.17;2.53;;;27.20;99.30;;;;;;4997759;28;20184;-67
2022/08/14 09:48:18;;;;;;;6.30;2.10;;;27.20;99.80;;;;;;5000143;28;20053;-71
2022/08/14 09:50:53;;;;;;;8.05;2.53;;;27.30;99.10;;;;;;5000624;28;20779;-70
2022/08/14 09:53:42;;;;;;;3.78;2.63;;;27.30;99.20;;;;;;4998700;28;20140;-72
2022/08/14 09:56:29;;;;;;;4.60;2.07;;;27.40;99.50;;;;;;4997800;28;20038;-71
2022/08/14 09:59:13;;;;;;;4.03;2.35;;;27.40;97.80;;;;;;5000002;28;20309;-67
2022/08/14 10:01:43;;;;;;;3.83;2.53;;;27.40;99.00;;;;;;4998194;28;20083;-70
2022/08/14 10:04:25;;;;;;;4.13;1.77;;;27.60;97.90;;;;;;5000237;28;20205;-69
2022/08/14 10:07:06;;;;;;;8.00;2.17;;;27.70;98.10;;;;;;4998130;28;20143;-73
2022/08/14 10:09:48;;;;;;;4.10;2.05;;;27.80;97.70;;;;;;4996100;28;20050;-71
2022/08/14 10:12:47;;;;;;;4.03;2.13;;;27.90;98.50;;;;;;4998427;28;20057;-68
2022/08/14 10:15:20;;;;;;;3.83;2.88;;;28.00;97.70;;;;;;4996744;28;20053;-70
2022/08/14 10:18:24;;;;;;;8.13;2.75;;;28.00;97.50;;;;;;4997934;28;20064;-71
2022/08/14 10:21:03;;;;;;;2.85;1.50;;;28.10;97.40;;;;;;4996720;28;20053;-70
2022/08/14 10:23:42;;;;;;;3.38;2.00;;;28.00;97.00;;;;;;4994526;28;20041;-69
2022/08/14 10:26:09;;;;;;;5.70;2.00;;;28.00;97.20;;;;;;4999978;28;20046;-69
2022/08/14 10:28:50;;;;;;;2.10;1.93;;;27.90;97.20;;;;;;5001700;28;20045;-72
2022/08/14 10:31:37;;;;;;;2.80;2.10;;;27.80;97.70;;;;;;4999735;28;20046;-69
2022/08/14 10:34:17;;;;;;;4.22;1.70;;;27.80;97.80;;;;;;5002312;28;20472;-71
2022/08/14 10:36:48;;;;;;;3.75;1.92;;;27.80;97.70;;;;;;5001609;28;20429;-70
2022/08/14 10:39:22;;;;;;;3.35;1.98;;;27.90;97.40;;;;;;4998788;28;20456;-70
2022/08/14 10:42:02;;;;;;;4.82;3.22;;;27.90;97.50;;;;;;5000331;28;20057;-67
2022/08/14 10:44:48;;;;;;;3.47;1.50;;;28.10;96.40;;;;;;5000654;28;21117;-71
2022/08/14 10:47:18;;;;;;;3.05;1.85;;;28.20;96.60;;;;;;4999816;28;20037;-70
2022/08/14 10:50:06;;;;;;;2.55;1.55;;;28.40;96.90;;;;;;5000456;28;20051;-69
2022/08/14 10:52:41;;;;;;;4.28;1.95;;;28.50;96.80;;;;;;5001847;28;20421;-69
2022/08/14 10:55:12;;;;;;;5.28;3.50;;;28.60;95.60;;;;;;4998865;28;20060;-73
2022/08/14 10:58:09;;;;;;;2.20;1.90;;;28.70;95.80;;;;;;5000774;28;20523;-70
2022/08/14 11:00:40;;;;;;;2.60;1.70;;;28.80;95.00;;;;;;4999750;28;20477;-71
2022/08/14 11:03:13;;;;;;;6.15;2.60;;;29.00;95.10;;;;;;4998626;28;20056;-70
2022/08/14 11:06:13;;;;;;;3.67;1.85;;;29.00;94.60;;;;;;4999587;28;20049;-70
2022/08/14 11:08:40;;;;;;;5.05;1.88;;;29.10;94.60;;;;;;4999458;28;20135;-73
2022/08/14 11:11:07;;;;;;;2.65;1.85;;;29.10;94.60;;;;;;4998605;28;20145;-68
2022/08/14 11:13:37;;;;;;;4.47;1.85;;;29.10;95.10;;;;;;4999316;28;20049;-70
2022/08/14 11:16:04;;;;;;;3.30;1.40;;;29.10;94.80;;;;;;5001149;28;20207;-72
2022/08/14 11:18:35;;;;;;;2.75;2.17;;;29.30;94.80;;;;;;5000263;28;20068;-73
2022/08/14 11:21:06;;;;;;;2.45;1.83;;;29.30;95.30;;;;;;4999841;28;20148;-70
2022/08/14 11:23:38;;;;;;;3.05;1.45;;;29.10;95.70;;;;;;4997411;28;20140;-72
2022/08/14 11:26:10;;;;;;;1.75;1.52;;;29.10;95.40;;;;;;4998801;28;20056;-70
2022/08/14 11:28:42;;;;;;;2.97;1.45;;;29.00;95.20;;;;;;4998633;28;20433;-68
2022/08/14 11:31:18;;;;;;;9.73;4.00;;;29.20;95.10;;;;;;4996190;28;20996;-70
2022/08/14 11:33:59;;;;;;;3.10;2.00;;;29.40;95.60;;;;;;4999059;28;20046;-68
2022/08/14 11:36:27;;;;;;;9.50;3.22;;;29.40;94.80;;;;;;4998503;28;20072;-71
2022/08/14 11:39:21;;;;;;;2.70;1.58;;;29.40;95.10;;;;;;4996915;28;20128;-70
2022/08/14 11:42:03;;;;;;;3.58;1.77;;;29.40;94.40;;;;;;4998863;28;20101;-69
2022/08/14 11:45:03;;;;;;;4.70;1.90;;;29.40;94.30;;;;;;4999455;28;21028;-71
2022/08/14 11:47:37;;;;;;;3.00;1.65;;;29.40;95.50;;;;;;4998820;28;20553;-69
2022/08/14 11:50:30;;;;;;;2.33;0.88;;;29.30;95.10;;;;;;4999674;28;20048;-69
2022/08/14 11:53:18;;;;;;;2.38;2.00;;;29.30;95.10;;;;;;4998507;28;21114;-74
2022/08/14 11:55:45;;;;;;;2.95;1.52;;;29.10;95.60;;;;;;4997347;28;20847;-70
2022/08/14 11:58:16;;;;;;;2.90;1.52;;;28.80;95.30;;;;;;4998418;28;20148;-72
2022/08/14 12:00:59;;;;;;;6.05;1.85;;;28.70;95.70;;;;;;4999345;28;20095;-70
2022/08/14 12:03:45;;;;;;;7.82;2.15;;;28.70;93.70;;;;;;4996859;28;20443;-73
2022/08/14 12:06:23;;;;;;;1.30;1.20;;;28.80;94.70;;;;;;4998923;28;20053;-70
2022/08/14 12:09:06;;;;;;;2.95;1.55;;;28.90;94.90;;;;;;4998474;28;20140;-71
2022/08/14 12:11:40;;;;;;;4.68;1.48;;;29.10;94.60;;;;;;4997991;28;20088;-69
2022/08/14 12:14:10;;;;;;;2.42;1.88;;;29.30;93.00;;;;;;4997772;28;20561;-76
2022/08/14 12:17:07;;;;;;;3.90;1.35;;;29.30;93.70;;;;;;4998260;28;20121;-73
2022/08/14 12:20:00;;;;;;;6.43;2.47;;;29.40;93.10;;;;;;4996897;28;20050;-68
2022/08/14 12:22:32;;;;;;;;;;;29.50;92.80;;;;;;4998886;28;20054;-73
2022/08/14 12:25:00;;;;;;;3.92;1.50;;;29.50;92.80;;;;;;4998458;28;19929;-69
2022/08/14 12:27:43;;;;;;;4.53;1.77;;;29.50;92.40;;;;;;4997602;28;20450;-71
2022/08/14 12:30:39;;;;;;;2.10;1.50;;;29.60;91.20;;;;;;4998630;28;20057;-70
2022/08/14 12:33:20;;;;;;;;;;;29.70;90.70;;;;;;4996951;28;20151;-70
2022/08/14 12:35:50;;;;;;;1.35;1.13;;;29.80;91.40;;;;;;4998491;28;19932;-73
2022/08/14 12:38:42;;;;;;;3.30;1.20;;;30.00;92.50;;;;;;4998561;28;20119;-71
2022/08/14 12:41:16;;;;;;;3.47;1.35;;;30.10;92.80;;;;;;4995859;28;20053;-70
2022/08/14 12:43:55;;;;;;;3.03;1.20;;;30.10;91.70;;;;;;4998526;28;20050;-68
2022/08/14 12:46:40;;;;;;;2.30;1.00;;;30.10;92.20;;;;;;4998202;28;20081;-68
2022/08/14 12:49:17;;;;;;;2.58;1.77;;;30.20;91.90;;;;;;4995488;28;20508;-68
2022/08/14 12:51:59;;;;;;;1.23;1.13;;;30.40;91.80;;;;;;4997575;28;20144;-68
2022/08/14 12:54:26;;;;;;;4.22;2.25;;;30.40;90.10;;;;;;4997881;28;20863;-70
2022/08/14 12:57:43;;;;;;;1.40;1.30;;;30.50;91.20;;;;;;4998535;28;20179;-68
2022/08/14 13:00:20;;;;;;;0.93;0.90;;;30.50;90.40;;;;;;4992470;28;20045;-71
2022/08/14 13:02:52;;;;;;;2.08;0.93;;;30.60;90.60;;;;;;4998072;28;20584;-70
2022/08/14 13:05:30;;;;;;;2.03;1.33;;;30.70;88.90;;;;;;4995824;28;20645;-69
2022/08/14 13:07:58;;;;;;;3.58;1.27;;;30.80;89.50;;;;;;4997342;28;20061;-69
2022/08/14 13:10:29;;;;;;;2.42;2.25;;;30.70;87.00;;;;;;4996828;28;20056;-71
2022/08/14 13:13:18;;;;;;;2.65;1.00;;;30.80;86.70;;;;;;4996466;28;20052;-69
2022/08/14 13:15:51;;;;;;;4.03;1.10;;;30.80;86.80;;;;;;4998417;28;20060;-68
2022/08/14 13:18:28;;;;;;;1.23;1.10;;;30.90;85.90;;;;;;4998678;28;20076;-71
2022/08/14 13:21:00;;;;;;;1.50;1.00;;;30.80;85.80;;;;;;4998695;28;20120;-68
2022/08/14 13:23:33;;;;;;;0.90;0.80;;;30.80;87.80;;;;;;4995864;28;20093;-71
2022/08/14 13:26:02;;;;;;;2.65;1.33;;;30.80;88.20;;;;;;4998154;28;20168;-71
2022/08/14 13:28:30;;;;;;;1.30;0.75;;;30.80;87.90;;;;;;4997482;28;20050;-70
2022/08/14 13:31:04;;;;;;;8.85;4.78;;;30.90;86.60;;;;;;4997462;28;20168;-72
2022/08/14 13:33:38;;;;;;;4.47;1.73;;;30.90;84.90;;;;;;4996515;28;20053;-71
2022/08/14 13:36:08;;;;;;;4.10;1.20;;;31.00;84.30;;;;;;4997173;28;20080;-73
2022/08/14 13:38:40;;;;;;;0.85;0.85;;;31.00;83.30;;;;;;4997386;28;20046;-69
2022/08/14 13:41:09;;;;;;;1.02;0.90;;;31.00;86.20;;;;;;4996138;28;20049;-71
2022/08/14 13:43:38;;;;;;;5.82;1.63;;;31.00;82.00;;;;;;4998119;28;20076;-69
2022/08/14 13:46:25;;;;;;;1.75;1.00;;;31.00;82.30;;;;;;4997654;28;20045;-68